Time;durP1;ratioP1;P1;durP2;ratioP2;P2;SDS_P1;SDS_P2;PMS_P1;PMS_P2;Temp;Humidity;BMP_temperature;BMP_pressure;BME280_temperature;BME280_humidity;BME280_pressure;Samples;Min_cycle;Max_cycle;Signal;HPM_P1;HPM_P2
2020/12/07 00:03:40;;;;;;;1.90;1.67;;;;;;;2.23;100.00;97169.92;3899362;74;391867;-77
2020/12/07 00:08:45;;;;;;;1.87;1.27;;;;;;;2.25;100.00;97162.93;3899310;74;393982;-77
2020/12/07 00:13:50;;;;;;;1.90;1.80;;;;;;;2.18;100.00;97170.33;3809977;76;396285;-77
2020/12/07 00:18:56;;;;;;;0.93;0.77;;;;;;;2.23;100.00;97180.17;3902466;74;383532;-77
2020/12/07 00:24:01;;;;;;;5.17;1.80;;;;;;;2.21;100.00;97173.59;3899459;74;396058;-77
2020/12/07 00:29:06;;;;;;;2.17;1.97;;;;;;;2.24;100.00;97177.66;3898941;75;392126;-77
2020/12/07 00:34:11;;;;;;;1.67;1.20;;;;;;;2.27;100.00;97177.45;3896244;74;396031;-77
2020/12/07 00:39:16;;;;;;;1.27;1.17;;;;;;;2.23;100.00;97176.10;3873795;75;383530;-78
2020/12/07 00:44:21;;;;;;;1.40;1.13;;;;;;;2.19;100.00;97149.59;3873050;75;393994;-78
2020/12/07 00:49:26;;;;;;;2.97;1.37;;;;;;;2.20;100.00;97181.53;3873563;75;392910;-77
2020/12/07 00:54:31;;;;;;;1.97;1.50;;;;;;;2.19;100.00;97159.64;3873190;75;392934;-78
2020/12/07 00:59:36;;;;;;;2.33;1.60;;;;;;;2.19;100.00;97155.58;3846620;75;394043;-78
2020/12/07 01:04:41;;;;;;;3.30;1.30;;;;;;;2.15;100.00;97150.75;3793975;76;391870;-78
2020/12/07 01:09:47;;;;;;;1.20;0.97;;;;;;;2.18;100.00;97150.75;3793950;76;391936;-78
2020/12/07 01:14:52;;;;;;;1.10;1.00;;;;;;;2.21;100.00;97156.75;3769391;76;383563;-78
2020/12/07 01:19:57;;;;;;;3.37;1.67;;;;;;;2.15;100.00;97168.39;3793778;76;392144;-78
2020/12/07 01:25:02;;;;;;;1.43;1.00;;;;;;;2.18;100.00;97173.80;3794316;76;387798;-79
2020/12/07 01:30:07;;;;;;;1.83;1.73;;;;;;;2.16;100.00;97175.36;3793930;76;392907;-78
2020/12/07 01:35:12;;;;;;;1.00;0.70;;;;;;;2.32;100.00;97172.41;3793756;76;383587;-78
2020/12/07 01:40:17;;;;;;;0.97;0.80;;;;;;;2.24;100.00;97160.02;3789042;77;383536;-78
2020/12/07 01:45:23;;;;;;;1.70;0.97;;;;;;;2.18;100.00;97154.05;3789126;76;387976;-78
2020/12/07 01:50:28;;;;;;;0.90;0.70;;;;;;;2.27;100.00;97134.84;3788842;76;391858;-78
2020/12/07 01:55:33;;;;;;;1.27;1.13;;;;;;;2.45;100.00;97120.64;3787983;76;396082;-79
2020/12/07 02:00:38;;;;;;;2.87;2.67;;;;;;;2.40;100.00;97130.52;3805541;75;383540;-78
2020/12/07 02:05:44;;;;;;;1.40;1.10;;;;;;;2.46;100.00;97133.05;3853977;75;385903;-78
2020/12/07 02:10:49;;;;;;;1.47;0.90;;;;;;;2.41;100.00;97130.16;3867709;75;390038;-77
2020/12/07 02:15:54;;;;;;;1.67;1.33;;;;;;;2.37;100.00;97140.23;3867042;75;396027;-78
2020/12/07 02:20:59;;;;;;;1.93;1.33;;;;;;;2.43;100.00;97133.82;3867272;75;396042;-78
2020/12/07 02:26:04;;;;;;;0.93;0.83;;;;;;;2.47;100.00;97152.20;3867992;75;392114;-78
2020/12/07 02:31:09;;;;;;;1.57;1.47;;;;;;;2.42;100.00;97165.59;3867193;75;396074;-78
2020/12/07 02:36:14;;;;;;;1.40;1.13;;;;;;;2.37;100.00;97183.63;3883428;74;395032;-78
2020/12/07 02:41:19;;;;;;;1.03;0.60;;;;;;;2.45;100.00;97177.02;3907900;74;383777;-77
2020/12/07 02:46:24;;;;;;;1.63;0.87;;;;;;;2.45;100.00;97170.23;3900261;74;393988;-78
2020/12/07 02:51:30;;;;;;;2.80;1.73;;;;;;;2.41;100.00;97165.42;3899644;74;394012;-79
2020/12/07 02:56:35;;;;;;;1.60;1.40;;;;;;;2.46;100.00;97165.01;3900049;74;396015;-78
2020/12/07 03:01:40;;;;;;;0.90;0.70;;;;;;;2.48;100.00;97173.54;3856892;75;383532;-78
2020/12/07 03:06:45;;;;;;;1.20;1.10;;;;;;;2.47;100.00;97165.77;3795918;76;391858;-78
2020/12/07 03:11:50;;;;;;;1.30;1.20;;;;;;;2.55;100.00;97193.07;3795636;77;396024;-78
2020/12/07 03:16:55;;;;;;;1.50;1.40;;;;;;;2.55;100.00;97196.58;3795518;77;396325;-78
2020/12/07 03:22:01;;;;;;;2.30;2.10;;;;;;;2.58;100.00;97205.87;3795559;77;391910;-78
2020/12/07 03:27:06;;;;;;;1.00;0.80;;;;;;;2.60;100.00;97221.95;3796285;77;385644;-78
2020/12/07 03:32:11;;;;;;;5.83;2.10;;;;;;;2.60;100.00;97226.02;3795081;77;396130;-78
2020/12/07 03:37:16;;;;;;;1.20;1.10;;;;;;;2.61;100.00;97238.42;3795572;75;392103;-78
2020/12/07 03:42:21;;;;;;;0.80;0.40;;;;;;;2.52;100.00;97247.55;3796684;77;383833;-78
2020/12/07 03:47:26;;;;;;;1.97;1.37;;;;;;;2.53;100.00;97239.60;3795613;77;395035;-76
2020/12/07 03:52:31;;;;;;;1.20;0.80;;;;;;;2.52;100.00;97240.77;3796235;77;393999;-76
2020/12/07 03:57:36;;;;;;;1.00;0.90;;;;;;;2.55;100.00;97230.50;3795983;77;389816;-77
2020/12/07 04:02:42;;;;;;;0.90;0.60;;;;;;;2.49;100.00;97234.78;3871762;75;388023;-77
2020/12/07 04:07:48;;;;;;;1.43;1.33;;;;;;;2.40;100.00;97247.98;3900505;74;383770;-77
2020/12/07 04:12:53;;;;;;;0.80;0.40;;;;;;;2.50;100.00;97253.94;3901034;74;383533;-77
2020/12/07 04:17:58;;;;;;;0.80;0.53;;;;;;;2.50;100.00;97251.83;3900933;74;383537;-77
2020/12/07 04:23:03;;;;;;;1.33;1.23;;;;;;;2.44;100.00;97254.75;3900610;74;392122;-77
2020/12/07 04:28:08;;;;;;;0.87;0.70;;;;;;;2.37;100.00;97273.75;3901185;74;383602;-76
2020/12/07 04:33:13;;;;;;;1.00;0.83;;;;;;;2.37;100.00;97290.80;3900708;74;387734;-76
2020/12/07 04:38:19;;;;;;;2.70;1.00;;;;;;;2.33;100.00;97306.88;3900016;73;394005;-77
2020/12/07 04:43:25;;;;;;;1.57;1.07;;;;;;;2.36;100.00;97306.88;3899896;74;396029;-77
2020/12/07 04:48:31;;;;;;;1.67;1.37;;;;;;;2.40;100.00;97293.31;3899618;74;396033;-77
2020/12/07 04:53:37;;;;;;;2.67;0.83;;;;;;;2.40;100.00;97278.38;3900467;74;386898;-77
2020/12/07 04:58:44;;;;;;;1.97;1.80;;;;;;;2.37;100.00;97281.89;3889012;74;396145;-77
2020/12/07 05:03:49;;;;;;;0.80;0.40;;;;;;;2.43;100.00;97293.30;3796523;77;383771;-77
2020/12/07 05:08:54;;;;;;;0.80;0.60;;;;;;;2.39;100.00;97291.75;3796553;77;383786;-77
2020/12/07 05:14:10;;;;;;;1.07;0.93;;;;;;;2.37;100.00;97293.51;3795836;77;389782;-77
2020/12/07 05:19:11;;;;;;;1.10;0.90;;;;;;;2.37;100.00;97300.29;3795228;77;383536;-78
2020/12/07 05:24:17;;;;;;;1.20;1.10;;;;;;;2.36;100.00;97297.38;3795379;77;396036;-77
2020/12/07 05:29:37;;;;;;;1.83;1.13;;;;;;;2.35;100.00;97311.34;3795675;77;396127;-77
2020/12/07 05:34:34;;;;;;;1.47;1.10;;;;;;;2.43;100.00;97308.22;3793551;77;396095;-77
2020/12/07 05:39:39;;;;;;;2.20;2.10;;;;;;;2.41;100.00;97307.86;3833429;74;383531;-77
2020/12/07 05:44:47;;;;;;;8.13;1.80;;;;;;;2.45;100.00;97319.47;3861077;75;392160;-77
2020/12/07 05:49:55;;;;;;;2.63;2.00;;;;;;;2.42;100.00;97335.16;3877273;75;390051;-78
2020/12/07 05:55:02;;;;;;;4.77;2.87;;;;;;;2.49;100.00;97347.39;3861275;75;396034;-77
2020/12/07 06:00:07;;;;;;;4.73;2.20;;;;;;;2.62;100.00;97345.82;3863546;75;396016;-77
2020/12/07 06:05:16;;;;;;;1.73;1.10;;;;;;;2.70;100.00;97358.22;3873521;75;396266;-78
2020/12/07 06:10:22;;;;;;;0.90;0.80;;;;;;;2.67;100.00;97354.92;3874427;75;392114;-77
2020/12/07 06:15:29;;;;;;;0.90;0.70;;;;;;;2.75;100.00;97357.82;3874229;75;383557;-76
2020/12/07 06:20:39;;;;;;;9.90;1.37;;;;;;;2.79;100.00;97355.89;3873908;75;397321;-77
2020/12/07 06:25:45;;;;;;;5.83;3.33;;;;;;;2.80;100.00;97367.52;3822782;76;396126;-78
2020/12/07 06:30:52;;;;;;;5.57;2.37;;;;;;;2.79;100.00;97361.32;3813074;76;395240;-76
2020/12/07 06:35:57;;;;;;;2.00;1.90;;;;;;;2.89;100.00;97378.75;3863290;75;396038;-76
2020/12/07 06:41:02;;;;;;;1.87;1.77;;;;;;;2.89;100.00;97389.05;3828026;75;396035;-77
2020/12/07 06:46:07;;;;;;;4.27;3.87;;;;;;;2.99;100.00;97385.52;3813275;76;394190;-76
2020/12/07 06:51:16;;;;;;;1.23;1.13;;;;;;;2.95;100.00;97386.13;3813455;75;396341;-76
2020/12/07 06:56:23;;;;;;;2.60;2.40;;;;;;;2.99;100.00;97390.19;3803567;76;391047;-76
2020/12/07 07:01:28;;;;;;;0.80;0.67;;;;;;;3.05;100.00;97377.19;3760024;77;383617;-76
2020/12/07 07:06:33;;;;;;;2.00;1.67;;;;;;;3.01;100.00;97391.34;3737799;77;393034;-76
2020/12/07 07:11:38;;;;;;;4.50;2.10;;;;;;;3.04;100.00;97401.44;3737551;77;393986;-76
2020/12/07 07:16:43;;;;;;;3.43;2.50;;;;;;;3.14;100.00;97412.88;3737383;77;396092;-76
2020/12/07 07:21:52;;;;;;;6.53;3.10;;;;;;;3.07;100.00;97412.86;3737345;77;396320;-76
2020/12/07 07:27:08;;;;;;;2.60;2.40;;;;;;;3.11;100.00;97415.00;3737178;77;396067;-77
2020/12/07 07:32:05;;;;;;;1.53;1.20;;;;;;;3.13;100.00;97432.45;3738334;77;394225;-76
2020/12/07 07:37:11;;;;;;;3.10;2.90;;;;;;;3.16;100.00;97444.47;3759884;76;396325;-76
2020/12/07 07:42:18;;;;;;;6.70;4.00;;;;;;;3.14;100.00;97450.31;3779981;76;396289;-76
2020/12/07 07:47:35;;;;;;;8.83;2.07;;;;;;;3.17;100.00;97460.97;3828693;73;396288;-76
2020/12/07 08:19:23;;;;;;;1.33;1.23;;;;;;;3.15;100.00;97493.17;3796967;77;396041;-76
2020/12/07 08:24:28;;;;;;;1.47;1.30;;;;;;;3.14;100.00;97497.09;3814381;76;389819;-76
2020/12/07 08:29:37;;;;;;;3.93;3.07;;;;;;;3.19;100.00;97509.67;3812932;76;396117;-78
2020/12/07 08:34:42;;;;;;;2.60;1.60;;;;;;;3.21;100.00;97525.01;3813500;76;396033;-79
2020/12/07 08:39:47;;;;;;;4.90;1.80;;;;;;;3.25;100.00;97535.88;3805059;76;396057;-76
2020/12/07 08:44:52;;;;;;;1.73;1.63;;;;;;;3.25;100.00;97532.59;3787335;77;396063;-76
2020/12/07 08:49:57;;;;;;;2.60;2.40;;;;;;;3.26;100.00;97544.22;3789759;76;383576;-75
2020/12/07 08:55:02;;;;;;;4.83;2.73;;;;;;;3.29;100.00;97559.77;3788301;76;396053;-75
2020/12/07 09:00:07;;;;;;;5.43;2.10;;;;;;;3.32;100.00;97557.61;3787093;77;396067;-75
2020/12/07 09:05:12;;;;;;;6.27;3.53;;;;;;;3.44;100.00;97565.38;3785172;77;396305;-75
2020/12/07 09:10:17;;;;;;;6.13;2.93;;;;;;;3.58;100.00;97574.88;3786051;77;396099;-76
2020/12/07 09:15:22;;;;;;;1.97;1.87;;;;;;;3.58;100.00;97578.39;3786636;76;392204;-76
2020/12/07 09:20:28;;;;;;;4.63;1.90;;;;;;;3.58;100.00;97585.75;3785772;77;396045;-75
2020/12/07 09:25:33;;;;;;;1.50;1.40;;;;;;;3.65;100.00;97580.30;3785702;77;391870;-75
2020/12/07 09:30:38;;;;;;;2.70;2.40;;;;;;;3.72;100.00;97587.09;3785518;76;395016;-75
2020/12/07 09:35:44;;;;;;;3.50;1.17;;;;;;;3.69;100.00;97601.48;3786117;76;393973;-76
2020/12/07 09:40:49;;;;;;;3.00;2.10;;;;;;;3.75;100.00;97598.56;3844749;74;395016;-76
2020/12/07 09:45:54;;;;;;;2.40;2.20;;;;;;;3.84;100.00;97606.50;3959448;74;396259;-76
2020/12/07 09:50:59;;;;;;;5.73;2.57;;;;;;;3.98;100.00;97610.58;3961966;73;396041;-76
2020/12/07 09:56:04;;;;;;;4.13;2.40;;;;;;;3.93;100.00;97619.91;3970707;73;396275;-76
2020/12/07 10:01:09;;;;;;;2.70;2.50;;;;;;;3.96;100.00;97621.83;3907470;74;391917;-76
2020/12/07 10:06:14;;;;;;;3.00;2.60;;;;;;;4.07;100.00;97621.24;3864181;75;396043;-76
2020/12/07 10:11:19;;;;;;;5.03;2.33;;;;;;;4.08;100.00;97620.08;3887258;74;396367;-76
2020/12/07 10:16:24;;;;;;;5.57;2.33;;;;;;;4.07;100.00;97627.28;3864396;75;396076;-75
2020/12/07 10:21:30;;;;;;;13.77;2.37;;;;;;;4.04;100.00;97631.53;3888016;75;396114;-76
2020/12/07 10:26:35;;;;;;;4.83;2.30;;;;;;;4.07;100.00;97638.16;3864325;75;389823;-76
2020/12/07 10:31:40;;;;;;;3.73;2.47;;;;;;;4.16;100.00;97636.58;3913843;73;396054;-76
2020/12/07 10:36:48;;;;;;;2.63;2.43;;;;;;;4.22;100.00;97635.00;3980057;73;396080;-76
2020/12/07 10:41:53;;;;;;;2.50;2.30;;;;;;;4.22;100.00;97629.56;3885204;73;392899;-76
2020/12/07 10:46:58;;;;;;;1.20;1.10;;;;;;;4.20;100.00;97626.45;3781763;75;391968;-76
2020/12/07 10:52:04;;;;;;;4.47;2.97;;;;;;;4.39;100.00;97627.38;3755908;76;396097;-76
2020/12/07 10:57:09;;;;;;;2.70;1.97;;;;;;;4.31;100.00;97631.89;3814894;75;396301;-76
2020/12/07 11:02:14;;;;;;;1.97;1.67;;;;;;;4.22;100.00;97633.64;3759942;76;393990;-76
2020/12/07 11:07:20;;;;;;;12.53;1.67;;;;;;;4.23;100.00;97629.75;3751951;76;383605;-76
2020/12/07 11:12:25;;;;;;;3.43;3.13;;;;;;;4.23;100.00;97625.67;3751345;76;383783;-76
2020/12/07 11:17:31;;;;;;;1.40;1.10;;;;;;;4.22;100.00;97633.64;3752194;78;385648;-76
2020/12/07 11:22:36;;;;;;;4.00;3.60;;;;;;;4.29;100.00;97627.41;3762530;76;396071;-76
2020/12/07 11:27:41;;;;;;;3.77;3.47;;;;;;;4.31;100.00;97629.17;3742654;77;396032;-76
2020/12/07 11:32:46;;;;;;;4.53;4.13;;;;;;;4.31;100.00;97621.77;3751599;77;396029;-76
2020/12/07 11:37:57;;;;;;;3.03;2.83;;;;;;;4.30;100.00;97618.84;3752082;76;393177;-76
2020/12/07 11:43:28;;;;;;;4.13;1.63;;;;;;;4.35;100.00;97594.53;3786586;75;396328;-76
2020/12/07 11:48:22;;;;;;;2.30;1.20;;;;;;;4.52;100.00;97588.25;3871922;75;391939;-75
2020/12/07 11:53:28;;;;;;;3.43;1.97;;;;;;;4.70;100.00;97583.50;3884409;75;394052;-75
2020/12/07 11:58:33;;;;;;;1.70;1.60;;;;;;;4.66;100.00;97588.97;3728636;78;396029;-75
2020/12/07 12:03:38;;;;;;;3.37;2.60;;;;;;;4.69;100.00;97598.29;3873810;75;387742;-75
2020/12/07 12:08:43;;;;;;;2.80;1.70;;;;;;;4.75;100.00;97598.85;3874768;75;396082;-76
2020/12/07 12:13:48;;;;;;;2.10;1.67;;;;;;;4.72;100.00;97600.39;3873816;75;396311;-75
2020/12/07 12:18:53;;;;;;;1.17;1.07;;;;;;;4.90;100.00;97604.41;3886230;75;385613;-75
2020/12/07 12:24:02;;;;;;;2.30;2.20;;;;;;;4.85;100.00;97614.34;3873303;75;396293;-76
2020/12/07 12:29:07;;;;;;;4.23;3.13;;;;;;;4.84;100.00;97614.94;3873505;75;396061;-75
2020/12/07 12:34:13;;;;;;;5.97;2.67;;;;;;;4.78;100.00;97621.19;3873225;75;396082;-75
2020/12/07 12:39:18;;;;;;;7.10;2.67;;;;;;;4.74;100.00;97618.48;3873309;75;396117;-75
2020/12/07 12:44:23;;;;;;;2.30;1.60;;;;;;;4.66;100.00;97616.20;3838930;76;396090;-76
2020/12/07 12:49:28;;;;;;;11.30;2.47;;;;;;;4.74;100.00;97622.57;3820978;75;400202;-77
2020/12/07 12:54:33;;;;;;;4.53;2.53;;;;;;;4.60;100.00;97634.12;3824994;76;396064;-74
2020/12/07 12:59:38;;;;;;;2.10;1.53;;;;;;;4.64;100.00;97641.69;3796639;76;396120;-76
2020/12/07 13:04:44;;;;;;;3.07;2.10;;;;;;;4.59;100.00;97647.55;3754282;76;396069;-76
2020/12/07 13:09:49;;;;;;;1.60;1.50;;;;;;;4.59;100.00;97654.36;3753646;76;396261;-78
2020/12/07 13:14:54;;;;;;;2.20;2.03;;;;;;;4.82;100.00;97654.05;3753094;76;396052;-78
2020/12/07 13:20:04;;;;;;;2.83;1.10;;;;;;;4.89;100.00;97658.70;3754773;76;393946;-78
2020/12/07 13:25:14;;;;;;;2.83;2.53;;;;;;;4.77;100.00;97658.56;3690795;78;396305;-78
2020/12/07 13:30:13;;;;;;;1.67;1.47;;;;;;;4.72;100.00;97656.83;3704012;77;397005;-78
2020/12/07 13:35:18;;;;;;;3.30;1.87;;;;;;;4.70;100.00;97663.25;3695864;77;389013;-77
2020/12/07 13:40:24;;;;;;;3.73;1.27;;;;;;;4.73;100.00;97667.31;3786012;77;394262;-78
2020/12/07 13:45:30;;;;;;;2.60;1.17;;;;;;;4.64;100.00;97678.45;3724307;77;396109;-78
2020/12/07 13:50:35;;;;;;;3.60;2.70;;;;;;;4.60;100.00;97682.35;3730777;78;396088;-78
2020/12/07 13:55:41;;;;;;;2.47;1.70;;;;;;;4.56;100.00;97688.41;3731084;78;389807;-79
2020/12/07 14:00:46;;;;;;;8.33;3.57;;;;;;;4.45;100.00;97697.17;3766901;77;394007;-74
2020/12/07 14:05:51;;;;;;;2.63;2.37;;;;;;;4.54;100.00;97704.36;3792988;76;396079;-74
2020/12/07 14:10:56;;;;;;;3.33;3.07;;;;;;;4.55;100.00;97701.23;3793006;77;396036;-75
2020/12/07 14:16:01;;;;;;;1.20;1.10;;;;;;;4.56;100.00;97707.47;3793706;77;396024;-74
2020/12/07 14:21:15;;;;;;;1.53;1.43;;;;;;;4.64;100.00;97711.12;3793459;77;391926;-75
2020/12/07 14:26:22;;;;;;;2.30;2.10;;;;;;;4.53;100.00;97723.22;3793304;77;396057;-74
2020/12/07 14:41:52;;;;;;;1.80;1.17;;;;;;;4.45;100.00;97742.86;3794265;76;393952;-75
2020/12/07 14:46:57;;;;;;;3.20;2.40;;;;;;;4.47;100.00;97756.87;3783308;76;396025;-75
2020/12/07 14:52:05;;;;;;;5.30;2.97;;;;;;;4.47;100.00;97756.11;3783346;76;396040;-75
2020/12/07 15:18:22;;;;;;;5.30;2.30;;;;;;;4.33;100.00;97762.33;3804349;77;394951;-75
2020/12/07 15:23:27;;;;;;;2.33;2.17;;;;;;;4.24;100.00;97765.27;3803323;76;396995;-75
2020/12/07 15:28:34;;;;;;;4.00;3.63;;;;;;;4.21;100.00;97770.88;3802698;77;396028;-75
2020/12/07 15:33:41;;;;;;;5.33;2.80;;;;;;;4.16;100.00;97768.56;3802167;77;396126;-75
2020/12/07 15:38:46;;;;;;;4.30;2.73;;;;;;;4.12;100.00;97769.72;3802209;77;396043;-75
2020/12/07 15:43:51;;;;;;;7.27;3.20;;;;;;;4.15;100.00;97761.55;3814764;75;391104;-76
2020/12/07 15:48:57;;;;;;;5.00;4.50;;;;;;;4.16;100.00;97756.31;3820893;75;3835597;-76
2020/12/07 15:54:02;;;;;;;2.20;1.67;;;;;;;4.09;100.00;97757.67;3861874;75;396312;-75
2020/12/07 15:59:07;;;;;;;3.63;2.60;;;;;;;4.11;100.00;97770.32;3861428;75;396111;-75
2020/12/07 16:04:12;;;;;;;1.50;1.07;;;;;;;4.17;100.00;97775.56;3862159;75;394171;-75
2020/12/07 16:09:18;;;;;;;2.30;1.90;;;;;;;4.58;100.00;97766.38;3861569;75;396339;-75
2020/12/07 16:14:23;;;;;;;2.27;1.20;;;;;;;4.48;100.00;97771.27;3862014;75;394037;-76
2020/12/07 16:19:28;;;;;;;3.30;2.70;;;;;;;4.41;100.00;97776.13;3861704;75;395179;-75
2020/12/07 16:24:34;;;;;;;2.50;2.00;;;;;;;4.22;100.00;97774.39;3861096;75;396088;-75
2020/12/07 16:29:39;;;;;;;1.97;1.60;;;;;;;4.14;100.00;97781.00;3861594;75;396023;-75
2020/12/07 16:35:00;;;;;;;4.97;3.37;;;;;;;4.12;100.00;97786.05;3885836;75;396034;-77
2020/12/07 16:40:21;;;;;;;3.83;3.30;;;;;;;4.12;100.00;97798.30;3887072;74;396991;-77
2020/12/07 16:45:43;;;;;;;1.80;1.70;;;;;;;4.15;100.00;97797.53;3854358;75;397005;-77
2020/12/07 16:51:04;;;;;;;1.60;1.50;;;;;;;4.11;100.00;97795.38;3815394;75;393080;-77
2020/12/07 16:56:09;;;;;;;2.47;1.97;;;;;;;4.10;100.00;97783.72;3784557;76;396115;-77
2020/12/07 17:01:14;;;;;;;1.77;1.67;;;;;;;4.09;100.00;97796.34;3788765;77;397039;-77
2020/12/07 17:06:23;;;;;;;5.13;3.70;;;;;;;4.05;100.00;97801.78;3789312;76;396087;-76
2020/12/07 17:11:28;;;;;;;2.07;1.87;;;;;;;4.04;100.00;97805.66;3789877;77;394183;-77
2020/12/07 17:16:34;;;;;;;2.10;2.00;;;;;;;3.98;100.00;97804.50;3789576;76;396134;-76
2020/12/07 17:21:39;;;;;;;2.00;1.70;;;;;;;3.90;100.00;97805.45;3789237;76;396090;-77
2020/12/07 17:26:44;;;;;;;3.93;2.13;;;;;;;3.91;100.00;97807.80;3788888;77;396278;-77
2020/12/07 17:31:49;;;;;;;6.17;1.90;;;;;;;3.84;100.00;97818.64;3788978;77;396344;-77
2020/12/07 17:36:54;;;;;;;1.73;1.63;;;;;;;3.75;100.00;97820.98;3788642;76;396270;-77
2020/12/07 17:42:00;;;;;;;1.87;1.43;;;;;;;3.69;100.00;97829.89;3790184;77;395037;-77
2020/12/07 17:47:05;;;;;;;6.33;2.33;;;;;;;3.61;100.00;97822.88;3863643;74;393975;-77
2020/12/07 17:52:11;;;;;;;2.33;1.57;;;;;;;3.58;100.00;97829.06;3897000;74;396371;-77
2020/12/07 17:57:20;;;;;;;5.13;2.90;;;;;;;3.57;100.00;97826.15;3869430;74;396089;-76
2020/12/07 18:02:27;;;;;;;2.90;1.90;;;;;;;3.48;100.00;97828.44;3881863;75;392903;-77
2020/12/07 18:07:32;;;;;;;1.27;1.17;;;;;;;3.42;100.00;97823.19;3883375;74;394988;-77
2020/12/07 18:12:37;;;;;;;2.33;2.10;;;;;;;3.40;100.00;97827.66;3884069;75;396074;-77
2020/12/07 18:17:42;;;;;;;2.67;2.00;;;;;;;3.39;100.00;97821.25;3884314;75;389881;-78
2020/12/07 18:22:47;;;;;;;1.77;1.50;;;;;;;3.35;100.00;97819.85;3882667;75;394212;-77
2020/12/07 18:27:52;;;;;;;4.23;1.30;;;;;;;3.37;100.00;97829.00;3883603;75;391930;-78
2020/12/07 18:32:58;;;;;;;5.83;3.47;;;;;;;3.36;100.00;97835.00;3882743;75;393958;-75
2020/12/07 18:38:03;;;;;;;15.70;4.20;;;;;;;3.43;100.00;97824.16;3898202;74;396054;-76
2020/12/07 18:43:08;;;;;;;31.47;6.37;;;;;;;3.37;100.00;97826.28;3855146;74;400238;-76
2020/12/07 18:48:13;;;;;;;33.27;4.27;;;;;;;3.35;100.00;97834.03;3922590;74;396025;-77
2020/12/07 18:53:19;;;;;;;4.23;2.27;;;;;;;3.37;100.00;97832.48;3895331;74;396035;-77
2020/12/07 18:58:24;;;;;;;4.40;2.50;;;;;;;3.39;100.00;97836.97;3821480;75;396338;-76
2020/12/07 19:03:29;;;;;;;2.30;1.97;;;;;;;3.40;100.00;97838.53;3852399;76;396251;-77
2020/12/07 19:08:34;;;;;;;2.03;1.83;;;;;;;3.40;100.00;97840.45;3851765;75;392845;-77
2020/12/07 19:13:43;;;;;;;3.97;3.47;;;;;;;3.39;100.00;97855.23;3856879;75;396071;-76
2020/12/07 19:18:46;;;;;;;3.13;2.83;;;;;;;3.36;100.00;97847.83;3832361;76;396081;-77
2020/12/07 19:23:51;;;;;;;6.30;2.90;;;;;;;3.39;100.00;97862.02;3832629;76;396023;-77
2020/12/07 19:28:57;;;;;;;1.83;1.30;;;;;;;3.35;100.00;97858.49;3831961;76;396067;-77
2020/12/07 19:34:02;;;;;;;2.57;2.37;;;;;;;3.33;100.00;97856.73;3832416;76;396078;-77
2020/12/07 19:39:08;;;;;;;6.00;4.57;;;;;;;3.33;100.00;97854.02;3809753;76;396274;-77
2020/12/07 19:44:13;;;;;;;6.17;2.27;;;;;;;3.32;100.00;97852.45;3809873;76;396061;-77
2020/12/07 19:49:19;;;;;;;7.40;4.00;;;;;;;3.34;100.00;97854.22;3789051;76;393938;-77
2020/12/07 19:54:24;;;;;;;3.40;2.47;;;;;;;3.34;100.00;97849.58;3782415;77;396478;-76
2020/12/07 19:59:29;;;;;;;4.47;2.33;;;;;;;3.34;100.00;97846.86;3786922;75;396069;-77
2020/12/07 20:04:35;;;;;;;9.90;3.60;;;;;;;3.33;100.00;97839.06;3792594;76;396162;-77
2020/12/07 20:09:40;;;;;;;3.47;2.23;;;;;;;3.30;100.00;97847.41;3781475;76;396069;-76
2020/12/07 20:14:45;;;;;;;8.00;3.80;;;;;;;3.29;100.00;97850.52;3785085;76;396325;-77
2020/12/07 20:19:50;;;;;;;1.80;1.60;;;;;;;3.27;100.00;97853.59;3796183;76;391909;-77
2020/12/07 20:24:56;;;;;;;3.30;2.77;;;;;;;3.17;100.00;97850.27;3781519;76;396312;-77
2020/12/07 20:30:01;;;;;;;1.93;1.83;;;;;;;3.19;100.00;97850.64;3795808;76;396114;-76
2020/12/07 20:35:06;;;;;;;2.80;2.20;;;;;;;3.12;100.00;97843.05;3756074;76;393938;-77
2020/12/07 20:40:11;;;;;;;5.13;3.57;;;;;;;3.06;100.00;97835.07;3793444;76;396314;-79
2020/12/07 20:45:16;;;;;;;5.70;3.80;;;;;;;3.03;100.00;97829.03;3788210;76;396036;-78
2020/12/07 20:50:21;;;;;;;2.50;2.23;;;;;;;3.05;100.00;97833.51;3856797;75;396030;-78
2020/12/07 20:55:26;;;;;;;2.87;1.93;;;;;;;3.02;100.00;97832.91;3862373;75;393945;-78
2020/12/07 21:00:31;;;;;;;2.70;2.53;;;;;;;3.01;100.00;97842.20;3847816;75;396278;-77
2020/12/07 21:05:37;;;;;;;4.00;3.60;;;;;;;2.96;100.00;97839.06;3847189;76;396075;-77
2020/12/07 21:10:42;;;;;;;6.10;4.70;;;;;;;2.93;100.00;97835.17;3847976;75;396221;-77
2020/12/07 21:15:48;;;;;;;4.63;3.23;;;;;;;2.91;100.00;97832.64;3847062;75;396062;-77
2020/12/07 21:20:53;;;;;;;2.90;1.73;;;;;;;2.91;100.00;97844.27;3847078;76;396118;-77
2020/12/07 21:25:58;;;;;;;5.43;2.30;;;;;;;2.90;100.00;97850.89;3847397;75;387967;-77
2020/12/07 21:31:03;;;;;;;1.50;1.40;;;;;;;2.90;100.00;97852.24;3847604;75;396088;-77
2020/12/07 21:36:09;;;;;;;3.23;2.97;;;;;;;2.89;100.00;97858.03;3847505;75;396046;-77
2020/12/07 21:41:14;;;;;;;2.67;2.33;;;;;;;2.87;100.00;97859.78;3827982;75;394217;-77
2020/12/07 21:46:23;;;;;;;2.87;2.67;;;;;;;2.82;100.00;97864.22;3846817;75;396247;-77
2020/12/07 21:51:29;;;;;;;10.23;2.70;;;;;;;2.83;100.00;97858.20;3852945;75;393947;-77
2020/12/07 21:56:34;;;;;;;4.17;3.57;;;;;;;2.82;100.00;97856.63;3850589;76;396070;-77
2020/12/07 22:01:39;;;;;;;1.87;1.67;;;;;;;2.79;100.00;97859.53;3850361;75;396258;-77
2020/12/07 22:06:45;;;;;;;2.63;1.43;;;;;;;2.81;100.00;97856.43;3850766;75;396255;-76
2020/12/07 22:11:50;;;;;;;5.00;3.60;;;;;;;2.80;100.00;97863.02;3850771;75;392102;-76
2020/12/07 22:16:55;;;;;;;4.20;2.57;;;;;;;2.79;100.00;97856.82;3850820;76;396070;-76
2020/12/07 22:22:00;;;;;;;2.23;2.00;;;;;;;2.81;100.00;97855.87;3851068;75;387768;-76
2020/12/07 22:27:06;;;;;;;2.90;2.70;;;;;;;2.76;100.00;97848.06;3850326;75;396280;-76
2020/12/07 22:32:11;;;;;;;5.33;3.37;;;;;;;2.73;100.00;97843.41;3851231;75;396107;-76
2020/12/07 22:37:16;;;;;;;2.80;2.60;;;;;;;2.67;100.00;97831.31;3851324;75;396150;-76
2020/12/07 22:42:21;;;;;;;2.07;1.97;;;;;;;2.63;100.00;97831.89;3850677;75;396281;-76
2020/12/07 22:47:27;;;;;;;2.67;2.47;;;;;;;2.57;100.00;97815.77;3850364;76;396351;-77
2020/12/07 22:52:32;;;;;;;4.80;2.40;;;;;;;2.50;100.00;97822.47;3847037;75;396127;-77
2020/12/07 22:57:37;;;;;;;2.20;1.37;;;;;;;2.43;100.00;97825.14;3842812;76;396071;-76
2020/12/07 23:02:42;;;;;;;2.70;2.10;;;;;;;2.38;100.00;97825.50;3826418;76;396037;-77
2020/12/07 23:07:47;;;;;;;5.00;2.20;;;;;;;2.30;100.00;97810.91;3804600;77;396048;-76
2020/12/07 23:12:52;;;;;;;7.23;1.87;;;;;;;2.24;100.00;97810.27;3824257;76;396304;-77
2020/12/07 23:17:57;;;;;;;3.13;2.20;;;;;;;2.17;100.00;97804.20;3826750;76;396072;-76
2020/12/07 23:23:03;;;;;;;2.40;1.67;;;;;;;2.15;100.00;97807.85;3799601;76;396134;-76
2020/12/07 23:28:08;;;;;;;3.30;3.10;;;;;;;2.11;100.00;97807.06;3823083;76;396102;-76
2020/12/07 23:33:14;;;;;;;3.00;1.37;;;;;;;2.19;100.00;97805.17;3821563;76;394126;-77
2020/12/07 23:38:20;;;;;;;2.30;2.10;;;;;;;2.25;100.00;97805.81;3822651;76;393949;-77
2020/12/07 23:43:25;;;;;;;4.13;3.73;;;;;;;2.11;100.00;97800.84;3821904;76;396119;-76
2020/12/07 23:48:30;;;;;;;2.43;2.23;;;;;;;2.14;100.00;97806.29;3821700;75;396286;-76
2020/12/07 23:53:35;;;;;;;1.40;1.30;;;;;;;2.29;100.00;97805.84;3849269;76;396293;-76
2020/12/07 23:58:40;;;;;;;4.73;3.07;;;;;;;2.14;100.00;97814.43;3879426;74;396079;-76
